createdAt,value
2019-04-05T00:00:13.854Z,67.29
2019-04-05T00:02:43.319Z,67.33
2019-04-05T00:05:13.391Z,67.31
2019-04-05T00:07:42.859Z,67.49
2019-04-05T00:10:12.756Z,67.59
2019-04-05T00:12:42.283Z,67.64
2019-04-05T00:15:15.776Z,67.66
2019-04-05T00:17:43.243Z,67.72
2019-04-05T00:20:12.793Z,67.68
2019-04-05T00:22:42.240Z,67.68
2019-04-05T00:25:11.789Z,67.60
2019-04-05T00:27:41.238Z,67.59
2019-04-05T00:30:11.097Z,67.75
2019-04-05T00:32:40.569Z,67.74
2019-04-05T00:35:10.175Z,67.70
2019-04-05T00:37:39.655Z,67.79
2019-04-05T00:40:10.572Z,67.67
2019-04-05T00:42:39.992Z,67.69
2019-04-05T00:45:09.993Z,67.68
2019-04-05T00:47:39.475Z,67.74
2019-04-05T00:50:09.529Z,67.64
2019-04-05T00:52:39.159Z,67.60
2019-04-05T00:55:09.660Z,67.48
2019-04-05T00:57:39.210Z,67.53
2019-04-05T01:00:09.082Z,67.50
2019-04-05T01:02:38.632Z,67.54
2019-04-05T01:05:08.206Z,67.66
2019-04-05T01:07:37.799Z,67.75
2019-04-05T01:10:09.564Z,67.81
2019-04-05T01:12:41.395Z,67.57
2019-04-05T01:15:12.635Z,67.65
2019-04-05T01:17:42.734Z,67.61
2019-04-05T01:20:14.442Z,67.62
2019-04-05T01:22:45.484Z,67.55
2019-04-05T01:25:15.113Z,67.31
2019-04-05T01:27:44.791Z,67.36
2019-04-05T01:30:17.480Z,67.36
2019-04-05T01:32:48.020Z,67.38
2019-04-05T01:35:17.619Z,67.37
2019-04-05T01:37:47.661Z,67.27
2019-04-05T01:40:17.443Z,67.19
2019-04-05T01:42:47.676Z,67.02
2019-04-05T01:45:17.227Z,66.96
2019-04-05T01:47:46.682Z,67.00
2019-04-05T01:50:16.298Z,67.02
2019-04-05T01:52:46.365Z,66.96
2019-04-05T01:55:16.108Z,66.98
2019-04-05T01:57:45.610Z,67.04
2019-04-05T02:00:15.762Z,67.02
2019-04-05T02:02:45.614Z,67.06
2019-04-05T02:05:15.560Z,67.17
2019-04-05T02:07:45.158Z,67.11
2019-04-05T02:10:16.870Z,67.08
2019-04-05T02:12:46.470Z,67.03
2019-04-05T02:15:28.648Z,67.06
2019-04-05T02:17:59.200Z,67.11
2019-04-05T02:20:28.839Z,67.04
2019-04-05T02:22:58.419Z,67.03
2019-04-05T02:25:28.034Z,67.00
2019-04-05T02:27:57.553Z,67.14
2019-04-05T02:30:27.582Z,67.00
2019-04-05T02:32:57.190Z,66.92
2019-04-05T02:35:27.225Z,66.91
2019-04-05T02:37:56.861Z,66.86
2019-04-05T02:40:27.720Z,66.94
2019-04-05T02:43:00.287Z,67.02
2019-04-05T02:45:32.831Z,66.99
2019-04-05T02:48:05.435Z,66.86
2019-04-05T02:50:38.213Z,66.81
2019-04-05T02:53:10.222Z,66.84
2019-04-05T02:55:41.916Z,66.87
2019-04-05T02:58:13.512Z,66.79
2019-04-05T03:00:44.692Z,66.87
2019-04-05T03:03:15.174Z,66.85
2019-04-05T03:05:47.112Z,66.95
2019-04-05T03:08:17.857Z,66.95
2019-04-05T03:11:03.595Z,66.88
2019-04-05T03:13:36.575Z,66.69
2019-04-05T03:16:10.769Z,66.67
2019-04-05T03:18:44.994Z,66.89
2019-04-05T03:21:16.818Z,66.80
2019-04-05T03:23:47.313Z,66.91
2019-04-05T03:26:19.498Z,66.97
2019-04-05T03:28:52.805Z,67.07
2019-04-05T03:31:24.996Z,67.03
2019-04-05T03:33:54.100Z,67.08
2019-04-05T03:36:24.154Z,67.03
2019-04-05T03:38:54.166Z,67.06
2019-04-05T03:41:24.374Z,66.99
2019-04-05T03:43:54.012Z,66.92
2019-04-05T03:46:23.535Z,66.95
2019-04-05T03:48:53.050Z,66.97
2019-04-05T03:51:22.593Z,66.96
2019-04-05T03:53:52.281Z,66.97
2019-04-05T03:56:21.889Z,66.95
2019-04-05T03:58:51.617Z,66.95
2019-04-05T04:01:21.158Z,67.01
2019-04-05T04:03:50.881Z,67.01
2019-04-05T04:06:20.397Z,67.09
2019-04-05T04:08:49.917Z,67.03
2019-04-05T04:11:19.528Z,67.05
2019-04-05T04:13:49.718Z,67.12
2019-04-05T04:16:19.704Z,67.22
2019-04-05T04:18:50.146Z,67.27
2019-04-05T04:21:31.783Z,67.25
2019-04-05T04:24:01.604Z,67.22
2019-04-05T04:26:31.898Z,67.18
2019-04-05T04:29:01.454Z,67.25
2019-04-05T04:31:31.439Z,67.37
2019-04-05T04:34:01.458Z,67.39
2019-04-05T04:36:31.294Z,67.34
2019-04-05T04:39:01.055Z,67.41
2019-04-05T04:41:32.138Z,67.43
2019-04-05T04:44:02.035Z,67.46
2019-04-05T04:46:32.229Z,67.42
2019-04-05T04:49:02.409Z,67.33
2019-04-05T04:51:32.725Z,67.26
2019-04-05T04:54:02.412Z,67.31
2019-04-05T04:56:32.318Z,67.24
2019-04-05T04:59:02.108Z,67.20
2019-04-05T05:01:31.730Z,67.23
2019-04-05T05:04:02.327Z,67.18
2019-04-05T05:06:32.037Z,67.19
2019-04-05T05:09:01.959Z,67.21
2019-04-05T05:11:31.658Z,67.22
2019-04-05T05:14:01.667Z,67.12
2019-04-05T05:16:31.293Z,67.05
2019-04-05T05:19:01.428Z,67.09
2019-04-05T05:21:31.212Z,67.09
2019-04-05T05:24:01.095Z,67.04
2019-04-05T05:26:31.101Z,66.97
2019-04-05T05:29:00.894Z,67.05
2019-04-05T05:31:30.644Z,67.01
2019-04-05T05:34:00.622Z,67.10
2019-04-05T05:36:30.184Z,67.15
2019-04-05T05:38:59.861Z,67.27
2019-04-05T05:41:29.297Z,67.31
2019-04-05T05:43:58.838Z,67.37
2019-04-05T05:46:28.452Z,67.48
2019-04-05T05:48:57.979Z,67.50
2019-04-05T05:51:27.779Z,67.62
2019-04-05T05:53:57.300Z,67.74
2019-04-05T05:56:26.862Z,67.85
2019-04-05T05:58:59.428Z,67.74
2019-04-05T06:01:27.963Z,67.86
2019-04-05T06:03:57.514Z,67.75
2019-04-05T06:06:27.132Z,67.90
2019-04-05T06:08:56.583Z,67.82
2019-04-05T06:11:26.065Z,67.85
2019-04-05T06:13:55.517Z,67.92
2019-04-05T06:16:46.612Z,68.12
2019-04-05T06:19:15.603Z,68.05
2019-04-05T06:21:45.050Z,68.32
2019-04-05T06:24:14.531Z,68.43
2019-04-05T06:26:43.981Z,68.05
2019-04-05T06:29:13.468Z,67.93
2019-04-05T06:31:43.046Z,68.12
2019-04-05T06:34:12.495Z,67.94
2019-04-05T06:36:42.162Z,67.98
2019-04-05T06:39:11.740Z,67.99
2019-04-05T06:41:41.202Z,67.88
2019-04-05T06:44:10.693Z,68.45
2019-04-05T06:46:40.144Z,68.49
2019-04-05T06:49:09.622Z,67.71
2019-04-05T06:51:39.110Z,67.33
2019-04-05T06:54:08.557Z,67.25
2019-04-05T06:56:38.184Z,67.65
2019-04-05T06:59:07.632Z,66.64
2019-04-05T07:01:37.232Z,66.43
2019-04-05T07:04:06.892Z,66.78
2019-04-05T07:06:36.345Z,66.73
2019-04-05T07:09:07.474Z,65.96
2019-04-05T07:11:36.968Z,65.90
2019-04-05T07:14:06.651Z,66.06
2019-04-05T07:16:36.258Z,65.91
2019-04-05T07:19:05.889Z,65.14
2019-04-05T07:21:35.360Z,64.69
2019-04-05T07:24:04.964Z,64.58
2019-04-05T07:26:34.437Z,63.67
2019-04-05T07:29:03.974Z,62.17
2019-04-05T07:31:33.499Z,63.29
2019-04-05T07:34:02.996Z,63.03
2019-04-05T07:36:32.463Z,62.33
2019-04-05T07:39:01.917Z,61.69
2019-04-05T07:41:31.900Z,61.43
2019-04-05T07:44:01.520Z,61.62
2019-04-05T07:46:31.085Z,60.63
2019-04-05T07:49:00.551Z,60.87
2019-04-05T07:51:30.042Z,60.95
2019-04-05T07:53:59.501Z,60.78
2019-04-05T07:56:28.985Z,60.81
2019-04-05T07:58:58.524Z,60.32
2019-04-05T08:01:28.154Z,60.60
2019-04-05T08:03:58.194Z,61.20
2019-04-05T08:06:28.625Z,59.82
2019-04-05T08:09:05.938Z,61.03
2019-04-05T08:11:36.234Z,59.72
2019-04-05T08:14:06.188Z,60.07
2019-04-05T08:16:35.740Z,59.04
2019-04-05T08:19:05.346Z,59.62
2019-04-05T08:21:34.809Z,59.08
2019-04-05T08:24:04.514Z,60.16
2019-04-05T08:26:34.654Z,59.89
2019-04-05T08:29:04.292Z,59.71
2019-04-05T08:31:33.786Z,59.26
2019-04-05T08:34:03.275Z,58.46
2019-04-05T08:36:32.898Z,58.90
2019-04-05T08:39:02.412Z,59.03
2019-04-05T08:41:31.902Z,58.73
2019-04-05T08:44:01.400Z,59.11
2019-04-05T08:46:30.940Z,57.35
2019-04-05T08:49:10.129Z,57.26
2019-04-05T08:51:31.644Z,56.04
2019-04-05T08:54:01.068Z,56.42
2019-04-05T08:56:30.654Z,56.69
2019-04-05T08:59:00.211Z,57.24
2019-04-05T09:01:29.723Z,56.93
2019-04-05T09:03:59.174Z,55.77
2019-04-05T09:06:28.665Z,55.62
2019-04-05T09:08:58.127Z,56.65
2019-04-05T09:11:27.620Z,56.05
2019-04-05T09:13:57.108Z,55.19
2019-04-05T09:16:26.644Z,55.88
2019-04-05T09:18:56.209Z,55.21
2019-04-05T09:21:25.675Z,55.59
2019-04-05T09:23:55.163Z,54.81
2019-04-05T09:26:24.727Z,54.66
2019-04-05T09:28:54.218Z,54.82
2019-04-05T09:31:23.781Z,53.92
2019-04-05T09:33:53.277Z,54.42
2019-04-05T09:36:22.815Z,54.92
2019-04-05T09:38:52.332Z,55.41
2019-04-05T09:41:21.791Z,56.39
2019-04-05T09:43:51.249Z,55.24
2019-04-05T09:46:20.796Z,55.39
2019-04-05T09:48:50.408Z,56.54
2019-04-05T09:51:19.900Z,54.44
2019-04-05T09:53:49.404Z,53.38
2019-04-05T09:56:18.855Z,53.54
2019-04-05T09:58:48.427Z,54.39
2019-04-05T10:01:17.916Z,54.20
2019-04-05T10:03:47.661Z,54.59
2019-04-05T10:06:17.138Z,52.66
2019-04-05T10:08:46.652Z,53.09
2019-04-05T10:11:16.104Z,52.79
2019-04-05T10:13:45.666Z,52.79
2019-04-05T10:16:15.195Z,53.40
2019-04-05T10:18:44.662Z,53.98
2019-04-05T10:21:14.301Z,52.49
2019-04-05T10:23:43.769Z,51.83
2019-04-05T10:26:13.314Z,52.37
2019-04-05T10:28:42.787Z,52.69
2019-04-05T10:31:12.403Z,51.68
2019-04-05T10:33:41.898Z,51.75
2019-04-05T10:36:11.361Z,52.62
2019-04-05T10:38:40.881Z,51.77
2019-04-05T10:41:10.397Z,51.45
2019-04-05T10:43:39.958Z,50.35
2019-04-05T10:46:10.006Z,51.16
2019-04-05T10:48:39.536Z,50.26
2019-04-05T10:51:09.011Z,50.04
2019-04-05T10:53:38.543Z,50.88
2019-04-05T10:56:08.172Z,50.48
2019-04-05T10:58:37.731Z,51.59
2019-04-05T11:01:07.412Z,49.11
2019-04-05T11:03:36.894Z,50.45
2019-04-05T11:06:06.486Z,50.05
2019-04-05T11:08:36.045Z,49.88
2019-04-05T11:11:05.590Z,50.33
2019-04-05T11:13:35.087Z,49.70
2019-04-05T11:16:04.805Z,49.26
2019-04-05T11:18:34.373Z,50.87
2019-04-05T11:21:03.939Z,50.43
2019-04-05T11:23:33.419Z,51.54
2019-04-05T11:26:02.930Z,50.94
2019-04-05T11:28:32.484Z,50.88
2019-04-05T11:31:01.939Z,50.62
2019-04-05T11:33:31.508Z,50.73
2019-04-05T11:36:01.050Z,51.36
2019-04-05T11:38:31.278Z,51.27
2019-04-05T11:41:01.209Z,51.58
2019-04-05T11:43:33.579Z,50.79
2019-04-05T11:46:03.319Z,50.61
2019-04-05T11:48:33.219Z,50.72
2019-04-05T11:51:02.778Z,50.64
2019-04-05T11:53:32.247Z,50.27
2019-04-05T11:56:13.930Z,50.40
2019-04-05T11:58:33.090Z,50.23
2019-04-05T12:01:06.659Z,50.25
2019-04-05T12:03:36.307Z,51.06
2019-04-05T12:06:05.790Z,51.25
2019-04-05T12:08:35.262Z,50.10
2019-04-05T12:11:05.022Z,50.20
2019-04-05T12:13:34.520Z,51.79
2019-04-05T12:16:06.118Z,50.46
2019-04-05T12:18:35.529Z,51.91
2019-04-05T12:21:05.918Z,51.65
2019-04-05T12:23:35.421Z,51.09
2019-04-05T12:26:05.090Z,51.25
2019-04-05T12:28:34.601Z,51.08
2019-04-05T12:31:04.207Z,50.65
2019-04-05T12:33:33.761Z,51.34
2019-04-05T12:36:03.822Z,51.37
2019-04-05T12:38:34.050Z,51.64
2019-04-05T12:41:04.723Z,52.27
2019-04-05T12:43:35.327Z,52.47
2019-04-05T12:46:05.368Z,52.38
2019-04-05T12:48:34.937Z,52.76
2019-04-05T12:51:05.623Z,52.78
2019-04-05T12:53:35.470Z,52.41
2019-04-05T12:56:05.745Z,53.83
2019-04-05T12:58:35.246Z,53.09
2019-04-05T13:01:04.826Z,52.91
2019-04-05T13:03:34.585Z,53.51
2019-04-05T13:06:04.112Z,53.33
2019-04-05T13:08:33.604Z,53.19
2019-04-05T13:11:03.105Z,53.76
2019-04-05T13:13:32.833Z,54.71
2019-04-05T13:16:02.345Z,53.86
2019-04-05T13:18:31.900Z,53.54
2019-04-05T13:21:09.380Z,53.48
2019-04-05T13:23:33.767Z,53.98
2019-04-05T13:26:04.200Z,54.12
2019-04-05T13:28:33.744Z,53.86
2019-04-05T13:31:03.227Z,53.23
2019-04-05T13:33:32.703Z,54.33
2019-04-05T13:36:02.196Z,53.78
2019-04-05T13:38:31.685Z,53.35
2019-04-05T13:41:02.062Z,54.52
2019-04-05T13:43:32.618Z,54.52
2019-04-05T13:46:02.312Z,54.80
2019-04-05T13:48:31.807Z,54.29
2019-04-05T13:51:01.385Z,54.75
2019-04-05T13:53:30.857Z,54.51
2019-04-05T13:56:00.996Z,54.09
2019-04-05T13:58:30.475Z,53.75
2019-04-05T14:00:59.984Z,53.84
2019-04-05T14:03:29.459Z,53.75
2019-04-05T14:05:59.003Z,53.82
2019-04-05T14:08:28.487Z,53.66
2019-04-05T14:10:58.002Z,54.25
2019-04-05T14:13:27.477Z,54.65
2019-04-05T14:15:57.050Z,54.13
2019-04-05T14:18:26.548Z,53.88
2019-04-05T14:20:56.009Z,54.46
2019-04-05T14:23:26.487Z,54.15
2019-04-05T14:25:59.519Z,54.42
2019-04-05T14:28:27.287Z,54.42
2019-04-05T14:30:56.841Z,54.33
2019-04-05T14:33:26.310Z,54.73
2019-04-05T14:35:55.815Z,55.22
2019-04-05T14:38:25.294Z,54.65
2019-04-05T14:40:54.839Z,54.39
2019-04-05T14:43:24.306Z,55.04
2019-04-05T14:45:53.862Z,55.11
2019-04-05T14:48:23.446Z,55.10
2019-04-05T14:50:52.992Z,55.33
2019-04-05T14:53:22.541Z,55.62
2019-04-05T14:55:52.075Z,55.51
2019-04-05T14:58:21.559Z,55.31
2019-04-05T15:00:51.074Z,55.44
2019-04-05T15:03:20.589Z,55.48
2019-04-05T15:05:50.271Z,55.65
2019-04-05T15:08:20.721Z,54.93
2019-04-05T15:10:51.435Z,55.25
2019-04-05T15:13:21.105Z,55.19
2019-04-05T15:15:50.658Z,55.94
2019-04-05T15:18:24.219Z,55.96
2019-04-05T15:20:51.512Z,55.73
2019-04-05T15:23:20.984Z,55.53
2019-04-05T15:25:50.580Z,55.70
2019-04-05T15:28:20.142Z,56.03
2019-04-05T15:30:49.827Z,55.80
2019-04-05T15:33:19.496Z,55.71
2019-04-05T15:35:49.058Z,56.19
2019-04-05T15:38:18.580Z,56.16
2019-04-05T15:40:48.145Z,56.17
2019-04-05T15:43:18.506Z,56.66
2019-04-05T15:45:48.023Z,56.70
2019-04-05T15:48:17.535Z,56.81
2019-04-05T15:50:47.082Z,56.64
2019-04-05T15:53:16.566Z,57.09
2019-04-05T15:55:46.108Z,56.62
2019-04-05T15:58:15.676Z,57.34
2019-04-05T16:00:45.833Z,56.97
2019-04-05T16:03:16.362Z,56.90
2019-04-05T16:05:46.671Z,57.10
2019-04-05T16:08:18.525Z,57.31
2019-04-05T16:10:48.618Z,57.67
2019-04-05T16:13:18.113Z,57.57
2019-04-05T16:15:47.997Z,57.46
2019-04-05T16:18:17.599Z,58.22
2019-04-05T16:20:47.118Z,57.93
2019-04-05T16:23:16.642Z,57.58
2019-04-05T16:25:46.230Z,57.54
2019-04-05T16:28:15.711Z,57.96
2019-04-05T16:30:45.285Z,58.32
2019-04-05T16:33:14.770Z,57.63
2019-04-05T16:35:44.410Z,58.07
2019-04-05T16:38:13.958Z,58.13
2019-04-05T16:40:43.598Z,58.36
2019-04-05T16:43:13.205Z,58.23
2019-04-05T16:45:42.789Z,58.64
2019-04-05T16:48:12.274Z,58.64
2019-04-05T16:50:42.427Z,58.96
2019-04-05T16:53:12.017Z,58.72
2019-04-05T16:55:41.562Z,59.02
2019-04-05T16:58:11.308Z,58.96
2019-04-05T17:00:40.804Z,59.16
2019-04-05T17:03:10.350Z,59.19
2019-04-05T17:05:39.840Z,59.19
2019-04-05T17:08:09.383Z,58.95
2019-04-05T17:10:38.883Z,59.17
2019-04-05T17:13:08.338Z,59.42
2019-04-05T17:15:37.882Z,59.00
2019-04-05T17:18:07.548Z,59.01
2019-04-05T17:20:37.100Z,59.09
2019-04-05T17:23:06.662Z,59.41
2019-04-05T17:25:36.128Z,59.36
2019-04-05T17:28:05.715Z,59.05
2019-04-05T17:30:36.316Z,59.18
2019-04-05T17:33:06.018Z,59.29
2019-04-05T17:35:35.525Z,59.70
2019-04-05T17:38:05.146Z,59.51
2019-04-05T17:40:34.646Z,59.47
2019-04-05T17:43:04.214Z,59.99
2019-04-05T17:45:33.744Z,60.00
2019-04-05T17:48:03.254Z,59.91
2019-04-05T17:50:34.518Z,60.21
2019-04-05T17:53:12.062Z,59.99
2019-04-05T17:55:35.806Z,60.06
2019-04-05T17:58:06.956Z,59.99
2019-04-05T18:00:36.919Z,60.20
2019-04-05T18:03:06.558Z,60.11
2019-04-05T18:05:36.199Z,60.51
2019-04-05T18:08:05.739Z,60.41
2019-04-05T18:10:35.301Z,60.71
2019-04-05T18:13:04.927Z,60.89
2019-04-05T18:15:34.523Z,60.64
2019-04-05T18:18:04.074Z,60.58
2019-04-05T18:20:33.645Z,60.73
2019-04-05T18:23:03.227Z,60.95
2019-04-05T18:25:32.914Z,60.93
2019-04-05T18:28:02.627Z,61.07
2019-04-05T18:30:32.129Z,60.92
2019-04-05T18:33:01.734Z,60.94
2019-04-05T18:35:31.261Z,61.09
2019-04-05T18:38:00.725Z,61.08
2019-04-05T18:40:39.518Z,61.21
2019-04-05T18:43:01.572Z,61.26
2019-04-05T18:45:33.488Z,61.23
2019-04-05T18:48:02.459Z,61.29
2019-04-05T18:50:32.043Z,61.35
2019-04-05T18:53:01.582Z,61.48
2019-04-05T18:55:31.186Z,61.20
2019-04-05T18:58:00.696Z,61.50
2019-04-05T19:00:30.263Z,61.45
2019-04-05T19:02:59.895Z,61.52
2019-04-05T19:05:29.450Z,61.57
2019-04-05T19:07:59.003Z,61.40
2019-04-05T19:10:36.852Z,61.35
2019-04-05T19:12:59.935Z,61.60
2019-04-05T19:15:29.381Z,61.48
2019-04-05T19:17:58.901Z,61.62
2019-04-05T19:20:28.363Z,61.50
2019-04-05T19:22:57.895Z,61.69
2019-04-05T19:25:27.381Z,61.57
2019-04-05T19:27:56.957Z,61.73
2019-04-05T19:50:36.915Z,61.91
2019-04-05T19:53:06.383Z,62.03
2019-04-05T19:55:36.499Z,61.97
2019-04-05T19:58:06.264Z,61.99
2019-04-05T20:00:35.814Z,61.96
2019-04-05T20:03:05.673Z,61.81
2019-04-05T20:05:35.135Z,61.76
2019-04-05T20:08:04.715Z,61.97
2019-04-05T20:10:34.214Z,62.19
2019-04-05T20:13:03.789Z,62.18
2019-04-05T20:15:33.265Z,62.05
2019-04-05T20:18:02.839Z,61.84
2019-04-05T20:20:32.309Z,62.33
2019-04-05T20:23:01.922Z,61.92
2019-04-05T20:25:31.402Z,62.15
2019-04-05T20:28:00.915Z,62.22
2019-04-05T20:30:30.504Z,62.33
2019-04-05T20:33:00.228Z,62.40
2019-04-05T20:35:29.819Z,62.40
2019-04-05T20:37:59.367Z,62.45
2019-04-05T20:40:28.873Z,62.36
2019-04-05T20:42:59.941Z,62.51
2019-04-05T20:45:29.612Z,62.39
2019-04-05T20:47:59.099Z,62.66
2019-04-05T20:50:28.639Z,62.92
2019-04-05T20:52:58.094Z,62.40
2019-04-05T20:55:27.586Z,62.21
2019-04-05T20:57:57.088Z,62.35
2019-04-05T21:00:26.564Z,62.46
2019-04-05T21:02:56.087Z,62.40
2019-04-05T21:05:25.874Z,62.57
2019-04-05T21:07:55.428Z,62.59
2019-04-05T21:10:24.893Z,62.61
2019-04-05T21:12:54.409Z,62.49
2019-04-05T21:15:23.923Z,62.67
2019-04-05T21:17:53.493Z,63.10
2019-04-05T21:20:22.980Z,63.23
2019-04-05T21:22:52.461Z,62.86
2019-04-05T21:25:21.956Z,62.38
2019-04-05T21:27:51.433Z,63.04
2019-04-05T21:30:21.079Z,62.51
2019-04-05T21:32:50.543Z,62.37
2019-04-05T21:35:20.067Z,62.40
2019-04-05T21:37:49.542Z,62.95
2019-04-05T21:40:19.125Z,62.94
2019-04-05T21:42:48.626Z,63.06
2019-04-05T21:45:18.198Z,63.20
2019-04-05T21:47:47.761Z,63.07
2019-04-05T21:50:17.328Z,63.37
2019-04-05T21:52:46.817Z,63.26
2019-04-05T21:55:16.295Z,63.29
2019-04-05T21:57:45.790Z,63.42
2019-04-05T22:00:25.824Z,63.25
2019-04-05T22:02:55.468Z,63.16
2019-04-05T22:05:24.995Z,62.99
2019-04-05T22:07:54.529Z,63.22
2019-04-05T22:10:24.026Z,63.31
2019-04-05T22:12:53.515Z,63.28
2019-04-05T22:15:22.992Z,63.24
2019-04-05T22:17:52.501Z,63.73
2019-04-05T22:20:21.962Z,63.47
2019-04-05T22:22:51.454Z,63.52
2019-04-05T22:25:20.912Z,63.51
2019-04-05T22:27:52.057Z,63.82
2019-04-05T22:30:21.560Z,63.84
2019-04-05T22:32:51.023Z,64.14
2019-04-05T22:35:20.508Z,63.73
2019-04-05T22:37:50.008Z,63.55
2019-04-05T22:40:19.464Z,63.46
2019-04-05T22:42:48.955Z,63.41
2019-04-05T22:45:18.537Z,63.37
2019-04-05T22:47:48.021Z,63.27
2019-04-05T22:50:17.571Z,63.34
2019-04-05T22:52:47.050Z,63.36
2019-04-05T22:55:16.524Z,63.35
2019-04-05T22:57:46.023Z,63.54
2019-04-05T23:00:17.418Z,63.55
2019-04-05T23:02:46.895Z,63.60
2019-04-05T23:05:16.350Z,63.43
2019-04-05T23:07:45.870Z,63.50
2019-04-05T23:10:17.215Z,63.29
2019-04-05T23:12:46.716Z,63.44
2019-04-05T23:15:16.318Z,63.34
2019-04-05T23:17:45.816Z,63.33
2019-04-05T23:20:15.627Z,63.49
2019-04-05T23:22:45.179Z,63.28
2019-04-05T23:25:21.745Z,63.43
2019-04-05T23:27:45.898Z,63.61
2019-04-05T23:30:18.131Z,63.65
2019-04-05T23:32:47.633Z,63.58
2019-04-05T23:35:17.105Z,63.60
2019-04-05T23:37:46.630Z,63.67
2019-04-05T23:40:16.211Z,63.71
2019-04-05T23:42:45.781Z,63.49
2019-04-05T23:45:15.429Z,63.54
2019-04-05T23:47:44.894Z,63.59
2019-04-05T23:50:14.534Z,63.47
2019-04-05T23:52:43.998Z,63.57
2019-04-05T23:55:13.648Z,63.68
2019-04-05T23:57:43.137Z,63.59
